Time;durP1;ratioP1;P1;durP2;ratioP2;P2;SDS_P1;SDS_P2;PMS_P1;PMS_P2;Temp;Humidity;BMP_temperature;BMP_pressure;BME280_temperature;BME280_humidity;BME280_pressure;Samples;Min_cycle;Max_cycle;Signal;HPM_P1;HPM_P2
2021/08/19 02:47:41;;;;;;;19.55;10.02;;;19.60;91.90;;;;;;4843783;24;20038;-77
2021/08/19 02:50:07;;;;;;;17.25;10.50;;;19.60;92.00;;;;;;4820518;29;20333;-77
2021/08/19 02:52:33;;;;;;;18.38;10.18;;;19.70;92.00;;;;;;4820713;29;20041;-77
2021/08/19 02:54:59;;;;;;;14.60;9.20;;;19.70;92.00;;;;;;4835400;29;20038;-77
2021/08/19 02:57:25;;;;;;;17.50;10.05;;;19.60;92.00;;;;;;4850661;29;20330;-77
2021/08/19 02:59:50;;;;;;;16.65;9.65;;;19.60;92.30;;;;;;4836530;29;20091;-77
2021/08/19 03:02:16;;;;;;;19.23;9.77;;;19.70;92.20;;;;;;4835444;29;20038;-77
2021/08/19 03:04:42;;;;;;;17.17;10.20;;;19.70;92.10;;;;;;4836407;29;20039;-77
2021/08/19 03:07:09;;;;;;;14.45;9.65;;;19.70;92.30;;;;;;4835271;29;20037;-77
2021/08/19 03:09:35;;;;;;;22.63;9.95;;;19.70;92.20;;;;;;4835317;29;20198;-77
2021/08/19 03:12:02;;;;;;;17.40;9.48;;;19.70;92.10;;;;;;4835360;29;20082;-77
2021/08/19 03:14:28;;;;;;;14.65;9.18;;;19.60;92.20;;;;;;4835261;29;20038;-77
2021/08/19 03:16:54;;;;;;;14.63;9.07;;;19.70;92.50;;;;;;4834960;29;20328;-77
2021/08/19 03:19:20;;;;;;;17.33;9.95;;;19.60;92.60;;;;;;4835288;29;20054;-77
2021/08/19 03:21:46;;;;;;;19.55;10.27;;;19.70;92.60;;;;;;4835175;29;20030;-77
2021/08/19 03:24:13;;;;;;;15.82;10.15;;;19.70;92.70;;;;;;4835402;29;20039;-77
2021/08/19 03:26:39;;;;;;;;;;;19.70;92.70;;;;;;4835474;29;20033;-77
2021/08/19 03:29:05;;;;;;;18.27;10.88;;;19.60;92.70;;;;;;4819997;29;19908;-77
2021/08/19 03:31:30;;;;;;;21.52;10.35;;;19.60;92.80;;;;;;4834715;29;20038;-77
2021/08/19 03:33:56;;;;;;;15.52;9.63;;;19.60;92.80;;;;;;4835238;29;20262;-77
2021/08/19 03:36:23;;;;;;;18.42;9.70;;;19.60;92.80;;;;;;4834897;29;20035;-77
2021/08/19 03:38:49;;;;;;;17.38;9.88;;;19.60;92.80;;;;;;4835779;29;20039;-77
2021/08/19 03:41:15;;;;;;;14.88;9.52;;;19.60;92.80;;;;;;4834712;29;20358;-77
2021/08/19 03:43:41;;;;;;;16.87;10.17;;;19.60;93.00;;;;;;4834806;29;20030;-77
2021/08/19 03:46:07;;;;;;;15.60;8.88;;;19.60;92.90;;;;;;4831296;29;20077;-76
2021/08/19 03:48:33;;;;;;;18.15;9.82;;;19.50;92.70;;;;;;4817436;29;20049;-77
2021/08/19 03:50:59;;;;;;;24.48;10.30;;;19.50;93.00;;;;;;4815797;29;20318;-77
2021/08/19 03:53:25;;;;;;;18.15;9.93;;;19.50;92.90;;;;;;4816704;29;20046;-77
2021/08/19 03:55:51;;;;;;;20.92;9.57;;;19.50;92.90;;;;;;4816415;29;20238;-77
2021/08/19 03:58:17;;;;;;;16.60;9.50;;;19.50;93.00;;;;;;4816395;29;20099;-77
2021/08/19 04:00:42;;;;;;;16.65;9.63;;;19.50;93.00;;;;;;4817494;29;20337;-77
2021/08/19 04:03:08;;;;;;;18.35;9.32;;;19.50;92.80;;;;;;4816318;29;20031;-77
2021/08/19 04:05:34;;;;;;;18.25;9.57;;;19.60;92.70;;;;;;4817337;29;20034;-77
2021/08/19 04:08:00;;;;;;;19.35;8.95;;;19.50;92.60;;;;;;4816316;29;20027;-77
2021/08/19 04:10:26;;;;;;;14.88;9.57;;;19.50;92.50;;;;;;4816106;29;20079;-77
2021/08/19 04:12:51;;;;;;;17.48;9.45;;;19.50;92.50;;;;;;4816147;29;20030;-77
2021/08/19 04:15:17;;;;;;;15.63;9.35;;;19.50;92.50;;;;;;4815934;29;20050;-77
2021/08/19 04:17:43;;;;;;;13.35;8.10;;;19.50;92.50;;;;;;4803342;29;20042;-77
2021/08/19 04:20:09;;;;;;;14.27;8.75;;;19.50;92.40;;;;;;4797866;30;20227;-77
2021/08/19 04:22:35;;;;;;;14.85;9.10;;;19.60;92.50;;;;;;4799251;30;20019;-77
2021/08/19 04:25:02;;;;;;;16.67;9.30;;;19.70;92.50;;;;;;4798985;29;20041;-77
2021/08/19 04:27:27;;;;;;;15.70;9.18;;;19.70;92.60;;;;;;4797680;30;20058;-77
2021/08/19 04:29:53;;;;;;;18.38;8.82;;;19.70;92.60;;;;;;4797941;29;20306;-77
2021/08/19 04:32:19;;;;;;;15.15;8.50;;;19.70;92.20;;;;;;4782821;30;20327;-77
2021/08/19 04:34:45;;;;;;;16.92;8.93;;;19.80;92.30;;;;;;4797887;30;20056;-77
2021/08/19 04:37:11;;;;;;;16.45;8.68;;;19.80;92.40;;;;;;4798115;29;20039;-77
2021/08/19 04:39:36;;;;;;;17.05;8.77;;;19.80;92.50;;;;;;4782572;30;20043;-77
2021/08/19 04:42:02;;;;;;;21.88;9.40;;;19.80;92.70;;;;;;4782488;30;20031;-76
2021/08/19 04:44:28;;;;;;;18.75;9.18;;;19.80;92.50;;;;;;4797546;30;20038;-77
2021/08/19 04:46:54;;;;;;;14.02;8.70;;;19.80;92.30;;;;;;4788621;29;20055;-77
2021/08/19 04:49:19;;;;;;;19.73;9.60;;;19.90;92.30;;;;;;4815394;29;20095;-77
2021/08/19 04:51:45;;;;;;;15.55;9.48;;;19.90;92.50;;;;;;4830836;29;20030;-77
2021/08/19 04:54:11;;;;;;;16.10;8.75;;;19.90;92.80;;;;;;4816676;29;20034;-77
2021/08/19 04:56:37;;;;;;;17.48;9.45;;;19.90;93.10;;;;;;4816380;29;20076;-77
2021/08/19 04:59:08;;;;;;;16.75;9.25;;;20.00;92.40;;;;;;4830604;29;20103;-77
2021/08/19 05:01:35;;;;;;;20.25;9.48;;;20.10;92.60;;;;;;4816355;29;20019;-77
2021/08/19 05:04:02;;;;;;;21.08;9.43;;;20.10;92.70;;;;;;4830547;29;20030;-77
2021/08/19 05:06:32;;;;;;;;;;;20.10;92.60;;;;;;4831036;29;20068;-76
2021/08/19 05:09:00;;;;;;;23.95;8.85;;;20.20;92.00;;;;;;4830350;29;19937;-77
2021/08/19 05:11:26;;;;;;;19.67;9.20;;;20.20;92.20;;;;;;4815162;29;20030;-77
2021/08/19 05:13:57;;;;;;;24.23;9.73;;;20.30;91.70;;;;;;4816644;29;20075;-77
2021/08/19 05:16:23;;;;;;;15.77;8.25;;;20.30;91.40;;;;;;4815160;29;20035;-77
2021/08/19 05:18:48;;;;;;;21.95;9.27;;;20.30;91.70;;;;;;4815309;29;20437;-77
2021/08/19 05:21:14;;;;;;;17.02;9.00;;;20.40;91.20;;;;;;4815582;29;20247;-77
2021/08/19 05:23:40;;;;;;;19.55;8.40;;;20.50;91.20;;;;;;4815328;29;20037;-77
2021/08/19 05:26:07;;;;;;;17.00;8.00;;;20.50;91.70;;;;;;4815503;29;20054;-77
2021/08/19 05:28:33;;;;;;;17.38;9.07;;;20.60;91.00;;;;;;4815396;29;20321;-77
2021/08/19 05:31:00;;;;;;;17.52;9.35;;;20.80;90.60;;;;;;4815300;29;20118;-77
2021/08/19 05:33:26;;;;;;;;;;;20.90;90.60;;;;;;4815545;29;20031;-77
2021/08/19 05:35:52;;;;;;;21.00;8.90;;;20.90;90.30;;;;;;4815416;29;19984;-77
2021/08/19 05:38:18;;;;;;;14.18;8.40;;;20.90;90.30;;;;;;4807669;29;20071;-77
2021/08/19 05:40:44;;;;;;;20.25;9.32;;;20.90;90.30;;;;;;4818254;29;20031;-77
2021/08/19 05:43:09;;;;;;;20.75;9.38;;;20.90;90.50;;;;;;4832995;29;20230;-77
2021/08/19 05:45:36;;;;;;;21.63;9.40;;;20.90;90.80;;;;;;4837152;29;20034;-77
2021/08/19 05:48:02;;;;;;;15.63;8.25;;;21.00;90.30;;;;;;4841022;29;20065;-78
2021/08/19 05:50:29;;;;;;;20.60;8.52;;;21.10;90.10;;;;;;4825878;29;20314;-78
2021/08/19 05:52:55;;;;;;;19.52;9.45;;;21.20;89.70;;;;;;4834903;29;20038;-78
2021/08/19 05:55:21;;;;;;;20.38;9.25;;;21.30;88.40;;;;;;4824849;29;20399;-77
2021/08/19 05:57:47;;;;;;;21.08;9.13;;;21.40;90.00;;;;;;4820649;29;20260;-77
2021/08/19 06:00:14;;;;;;;22.20;8.05;;;21.60;88.70;;;;;;4833559;29;20042;-78
2021/08/19 06:02:40;;;;;;;14.82;7.55;;;21.70;88.10;;;;;;4834336;29;20337;-78
2021/08/19 06:05:06;;;;;;;21.52;8.82;;;21.70;86.80;;;;;;4825793;29;20066;-78
2021/08/19 06:07:32;;;;;;;16.43;8.00;;;21.90;86.40;;;;;;4838254;29;20034;-78
2021/08/19 06:09:58;;;;;;;17.73;8.63;;;22.00;85.80;;;;;;4831680;29;20058;-78
2021/08/19 06:12:23;;;;;;;18.48;7.97;;;22.10;86.50;;;;;;4826829;29;20027;-77
2021/08/19 06:14:51;;;;;;;13.85;8.50;;;22.20;84.60;;;;;;4835927;29;20117;-78
2021/08/19 06:17:18;;;;;;;23.95;9.50;;;22.30;85.20;;;;;;4825176;29;20061;-78
2021/08/19 06:19:44;;;;;;;18.25;9.18;;;22.50;84.40;;;;;;4845367;29;20026;-77
2021/08/19 06:22:09;;;;;;;16.27;8.48;;;22.50;83.90;;;;;;4828517;29;20033;-78
2021/08/19 06:24:35;;;;;;;16.45;8.25;;;22.60;82.60;;;;;;4836083;29;20023;-78
2021/08/19 06:27:01;;;;;;;13.57;8.20;;;22.60;83.40;;;;;;4828335;29;20042;-78
2021/08/19 06:29:27;;;;;;;13.73;8.35;;;22.70;82.80;;;;;;4829756;29;20014;-78
2021/08/19 06:31:53;;;;;;;18.58;7.65;;;22.90;82.50;;;;;;4841088;29;20031;-78
2021/08/19 06:34:18;;;;;;;18.70;8.05;;;23.10;80.90;;;;;;4844016;29;20087;-78
2021/08/19 06:36:44;;;;;;;13.77;7.30;;;23.30;80.50;;;;;;4824704;29;20026;-78
2021/08/19 06:39:10;;;;;;;16.15;8.10;;;23.40;78.40;;;;;;4801061;30;20027;-78
2021/08/19 06:41:35;;;;;;;18.83;8.02;;;23.50;78.50;;;;;;4821951;29;20034;-78
2021/08/19 06:44:01;;;;;;;17.95;8.20;;;23.60;77.80;;;;;;4842985;29;20050;-78
2021/08/19 06:46:27;;;;;;;14.15;8.48;;;23.80;78.00;;;;;;4836219;29;20267;-78
2021/08/19 06:48:53;;;;;;;16.92;7.88;;;24.10;78.00;;;;;;4823041;29;20060;-78
2021/08/19 06:51:19;;;;;;;23.73;8.70;;;24.30;77.50;;;;;;4836434;29;20038;-78
2021/08/19 06:53:45;;;;;;;14.35;8.68;;;24.40;75.70;;;;;;4839821;29;20030;-78
2021/08/19 06:56:12;;;;;;;26.67;7.80;;;24.40;76.50;;;;;;4848287;29;20030;-78
2021/08/19 06:58:38;;;;;;;21.40;8.70;;;24.50;76.00;;;;;;4835276;29;20054;-78
2021/08/19 07:01:04;;;;;;;17.45;6.95;;;24.30;74.00;;;;;;4842836;29;20097;-78
2021/08/19 07:03:30;;;;;;;17.93;8.37;;;24.20;74.10;;;;;;4835194;29;20035;-78
2021/08/19 07:05:55;;;;;;;19.52;7.78;;;24.10;75.70;;;;;;4832928;29;20026;-78
2021/08/19 07:08:21;;;;;;;21.63;7.97;;;24.20;76.20;;;;;;4812344;29;20098;-78
2021/08/19 07:10:47;;;;;;;21.50;8.65;;;24.40;74.80;;;;;;4834825;29;20077;-78
2021/08/19 07:13:13;;;;;;;16.35;8.05;;;24.50;73.80;;;;;;4815666;29;20097;-78
2021/08/19 07:15:41;;;;;;;23.05;7.78;;;24.60;72.40;;;;;;4837135;29;20042;-78
2021/08/19 07:18:08;;;;;;;17.52;8.05;;;24.60;73.50;;;;;;4840078;29;20093;-77
2021/08/19 07:20:33;;;;;;;13.57;7.47;;;24.70;73.50;;;;;;4844755;29;20318;-78
2021/08/19 07:22:59;;;;;;;14.55;7.57;;;24.80;72.20;;;;;;4843003;29;20042;-78
2021/08/19 07:25:25;;;;;;;22.08;8.77;;;25.00;73.70;;;;;;4839914;29;20329;-78
2021/08/19 07:27:51;;;;;;;21.08;7.95;;;25.00;70.90;;;;;;4830541;29;20042;-78
2021/08/19 07:30:18;;;;;;;20.50;7.47;;;25.10;69.80;;;;;;4843387;29;20096;-78
2021/08/19 07:32:44;;;;;;;15.27;7.35;;;25.20;70.10;;;;;;4835019;29;20062;-78
2021/08/19 07:35:11;;;;;;;14.90;7.38;;;25.20;69.20;;;;;;4804291;29;20094;-78
2021/08/19 07:37:49;;;;;;;21.17;8.50;;;25.20;70.10;;;;;;4817966;29;20114;-78
2021/08/19 07:40:19;;;;;;;21.60;7.72;;;25.20;69.30;;;;;;4835332;29;20098;-78
2021/08/19 07:42:45;;;;;;;15.27;8.48;;;25.20;70.10;;;;;;4831465;29;20325;-78
2021/08/19 07:45:13;;;;;;;19.40;8.20;;;25.40;70.00;;;;;;4834174;29;20026;-78
2021/08/19 07:47:39;;;;;;;17.25;7.72;;;25.60;68.70;;;;;;4819959;29;20047;-78
2021/08/19 07:50:07;;;;;;;17.13;7.43;;;25.80;68.60;;;;;;4800392;30;20031;-78
2021/08/19 07:52:33;;;;;;;14.18;7.50;;;26.00;67.40;;;;;;4799122;30;20023;-78
2021/08/19 07:54:58;;;;;;;11.68;6.38;;;26.20;66.50;;;;;;4800183;30;20059;-78
2021/08/19 07:57:24;;;;;;;14.15;7.40;;;26.30;67.60;;;;;;4800362;30;20341;-78
2021/08/19 07:59:50;;;;;;;17.55;7.00;;;26.30;64.90;;;;;;4799105;30;20234;-78
2021/08/19 08:02:16;;;;;;;13.60;6.67;;;26.30;64.80;;;;;;4800359;30;20043;-78
2021/08/19 08:04:42;;;;;;;20.08;7.35;;;26.20;65.50;;;;;;4798966;29;20031;-78
2021/08/19 08:07:08;;;;;;;12.02;7.03;;;26.30;65.30;;;;;;4799398;30;20023;-78
2021/08/19 08:09:34;;;;;;;14.48;7.45;;;26.30;65.60;;;;;;4799195;30;20055;-78
2021/08/19 08:12:00;;;;;;;11.05;6.68;;;26.30;65.90;;;;;;4784026;30;20065;-78
2021/08/19 08:14:26;;;;;;;12.13;6.57;;;26.30;65.00;;;;;;4808055;29;20081;-78
2021/08/19 08:16:52;;;;;;;11.73;6.43;;;26.40;66.20;;;;;;4811461;29;20097;-78
2021/08/19 08:19:18;;;;;;;16.42;6.85;;;26.50;65.40;;;;;;4816629;29;20308;-78
2021/08/19 08:21:44;;;;;;;17.88;6.80;;;26.70;65.10;;;;;;4817249;29;20342;-78
2021/08/19 08:24:11;;;;;;;11.50;7.17;;;26.80;64.10;;;;;;4803910;29;20050;-78
2021/08/19 08:26:36;;;;;;;15.77;7.25;;;26.80;64.70;;;;;;4798892;30;20269;-78
2021/08/19 08:29:02;;;;;;;15.85;7.18;;;26.80;64.30;;;;;;4798927;30;20047;-78
2021/08/19 08:31:30;;;;;;;15.35;6.93;;;26.80;63.40;;;;;;4798948;30;20035;-78
2021/08/19 08:33:57;;;;;;;17.25;7.22;;;26.70;63.80;;;;;;4816042;29;20047;-78
2021/08/19 08:36:23;;;;;;;12.63;6.53;;;26.60;62.70;;;;;;4816983;29;20102;-79
2021/08/19 08:38:49;;;;;;;12.18;6.15;;;26.40;63.10;;;;;;4816680;29;20038;-78
2021/08/19 08:41:19;;;;;;;11.82;5.97;;;26.50;64.30;;;;;;4816299;29;20198;-77
2021/08/19 08:43:47;;;;;;;14.43;6.07;;;26.70;63.60;;;;;;4801901;29;20055;-78
2021/08/19 08:46:17;;;;;;;9.57;5.63;;;26.80;62.60;;;;;;4816185;29;20063;-78
2021/08/19 08:48:44;;;;;;;10.23;6.32;;;27.00;62.00;;;;;;4850032;29;20083;-78
2021/08/19 08:51:10;;;;;;;9.02;6.00;;;27.30;61.50;;;;;;4850132;29;20053;-78
2021/08/19 08:53:37;;;;;;;15.45;7.30;;;27.70;62.80;;;;;;4834681;29;20049;-78
2021/08/19 08:56:03;;;;;;;10.00;5.93;;;28.00;62.50;;;;;;4849663;29;20086;-78
2021/08/19 08:58:29;;;;;;;10.43;6.28;;;28.10;61.70;;;;;;4835652;29;20047;-78
2021/08/19 09:00:56;;;;;;;14.18;6.30;;;28.10;59.80;;;;;;4835348;29;20057;-78
2021/08/19 09:03:22;;;;;;;8.02;5.35;;;28.20;58.40;;;;;;4849431;29;20034;-78
2021/08/19 09:05:50;;;;;;;12.65;5.85;;;28.20;58.60;;;;;;4849821;29;20030;-78
2021/08/19 09:08:17;;;;;;;8.77;6.43;;;28.40;57.60;;;;;;4849949;29;20046;-78
2021/08/19 09:10:44;;;;;;;8.15;5.57;;;28.50;58.20;;;;;;4849846;29;20030;-78
2021/08/19 09:13:15;;;;;;;12.93;5.00;;;28.50;57.50;;;;;;4849897;29;20026;-78
2021/08/19 09:15:43;;;;;;;9.90;5.45;;;28.70;58.00;;;;;;4835427;29;20106;-78
2021/08/19 09:18:09;;;;;;;10.93;6.88;;;28.80;57.20;;;;;;4833304;29;20035;-78
2021/08/19 09:20:38;;;;;;;12.25;6.43;;;28.80;56.60;;;;;;4815352;29;20034;-78
2021/08/19 09:23:13;;;;;;;17.88;6.25;;;28.60;55.30;;;;;;4816949;29;20091;-78
2021/08/19 09:25:46;;;;;;;18.17;6.03;;;28.50;56.50;;;;;;4816300;29;20039;-78
2021/08/19 09:28:13;;;;;;;9.80;6.00;;;28.50;58.20;;;;;;4831268;29;20041;-78
2021/08/19 09:30:42;;;;;;;8.43;5.28;;;28.60;58.10;;;;;;4816010;29;20052;-78
2021/08/19 09:33:09;;;;;;;12.07;5.93;;;28.90;57.50;;;;;;4831125;29;20318;-78
2021/08/19 09:35:36;;;;;;;8.30;5.45;;;29.00;54.90;;;;;;4806873;29;20041;-78
2021/08/19 09:38:19;;;;;;;8.02;5.28;;;28.90;53.40;;;;;;4816279;29;20038;-78
2021/08/19 09:41:01;;;;;;;19.17;6.32;;;29.00;54.50;;;;;;4814708;29;20046;-77
2021/08/19 09:43:42;;;;;;;8.98;5.13;;;29.10;54.20;;;;;;4817137;29;20061;-77
2021/08/19 09:46:08;;;;;;;10.15;5.07;;;29.20;53.40;;;;;;4818682;29;20058;-77
2021/08/19 09:48:34;;;;;;;7.47;4.90;;;29.00;53.80;;;;;;4823521;29;20031;-77
2021/08/19 09:51:24;;;;;;;12.10;5.23;;;29.00;54.50;;;;;;4829984;29;20034;-78
2021/08/19 09:53:55;;;;;;;12.80;5.38;;;29.10;52.40;;;;;;4757195;30;20053;-77
2021/08/19 09:56:29;;;;;;;9.80;5.50;;;28.80;55.10;;;;;;4728065;30;20113;-77
2021/08/19 09:59:15;;;;;;;5.72;3.70;;;28.80;54.70;;;;;;4757154;30;20058;-77
2021/08/19 10:01:41;;;;;;;;;;;28.80;51.30;;;;;;4738948;30;20324;-77
2021/08/19 10:04:07;;;;;;;7.53;4.20;;;28.80;52.00;;;;;;4735000;30;19918;-77
2021/08/19 10:06:34;;;;;;;6.93;4.35;;;28.60;52.60;;;;;;4730424;30;20032;-77
2021/08/19 10:09:00;;;;;;;7.50;5.15;;;28.40;52.50;;;;;;4759802;30;20040;-77
2021/08/19 10:11:27;;;;;;;7.63;4.77;;;28.20;54.20;;;;;;4739848;30;20060;-77
2021/08/19 10:13:53;;;;;;;;;;;28.40;55.80;;;;;;4743402;30;20037;-77
2021/08/19 10:16:19;;;;;;;6.68;4.65;;;28.50;53.20;;;;;;4744534;30;20095;-77
2021/08/19 10:18:48;;;;;;;7.60;3.80;;;28.40;55.90;;;;;;4760135;30;20090;-77
2021/08/19 10:21:16;;;;;;;4.72;3.38;;;28.50;52.30;;;;;;4760334;30;20047;-77
2021/08/19 10:23:46;;;;;;;6.90;3.40;;;28.50;52.80;;;;;;4760268;30;20403;-77
2021/08/19 10:26:18;;;;;;;5.38;3.60;;;28.70;52.40;;;;;;4745217;30;20063;-77
2021/08/19 10:29:03;;;;;;;5.88;3.30;;;28.60;51.00;;;;;;4759883;30;20040;-77
2021/08/19 10:31:43;;;;;;;4.45;3.42;;;28.80;50.50;;;;;;4789815;30;20123;-77
2021/08/19 10:34:32;;;;;;;6.30;3.47;;;28.60;50.70;;;;;;4797269;30;20393;-77
2021/08/19 10:36:58;;;;;;;5.53;3.20;;;28.60;49.90;;;;;;4795655;30;20334;-77
2021/08/19 10:39:25;;;;;;;5.83;3.90;;;28.50;51.20;;;;;;4784197;30;20106;-77
2021/08/19 10:41:52;;;;;;;;;;;28.70;52.60;;;;;;4800139;30;20035;-77
2021/08/19 10:44:26;;;;;;;6.28;3.40;;;28.90;51.60;;;;;;4799573;30;19909;-78
2021/08/19 10:46:54;;;;;;;4.43;3.25;;;29.30;50.60;;;;;;4811770;29;20078;-77
2021/08/19 10:49:32;;;;;;;3.03;2.72;;;29.50;49.80;;;;;;4851065;29;20617;-77
2021/08/19 10:52:25;;;;;;;4.38;3.15;;;29.60;49.10;;;;;;4820332;29;20046;-77
2021/08/19 10:55:08;;;;;;;4.70;3.22;;;29.30;48.40;;;;;;4780785;30;20279;-77
2021/08/19 10:57:34;;;;;;;5.85;3.22;;;29.20;48.60;;;;;;4780707;30;20123;-77
2021/08/19 11:00:12;;;;;;;4.07;2.43;;;29.10;49.20;;;;;;4765456;30;20032;-77
2021/08/19 11:02:41;;;;;;;3.80;2.67;;;29.00;49.00;;;;;;4780633;30;20380;-77
2021/08/19 11:05:47;;;;;;;4.80;2.80;;;29.10;48.70;;;;;;4765521;30;20040;-77
2021/08/19 11:08:12;;;;;;;7.03;3.20;;;29.10;49.40;;;;;;4780277;30;20040;-77
2021/08/19 11:10:39;;;;;;;7.17;3.57;;;29.00;48.40;;;;;;4780317;30;20250;-77
2021/08/19 11:13:09;;;;;;;4.40;2.53;;;28.90;48.60;;;;;;4765384;30;20059;-77
2021/08/19 11:15:48;;;;;;;6.50;2.92;;;28.90;49.90;;;;;;4780085;30;20102;-77
2021/08/19 11:18:32;;;;;;;3.40;2.42;;;29.00;49.00;;;;;;4779821;30;20438;-77
2021/08/19 11:20:59;;;;;;;3.40;2.33;;;28.80;46.40;;;;;;4760594;30;20067;-77
2021/08/19 11:23:39;;;;;;;6.13;2.60;;;28.60;47.40;;;;;;4732775;30;20070;-77
2021/08/19 11:26:08;;;;;;;3.72;2.25;;;28.40;49.00;;;;;;4732882;30;20036;-77
2021/08/19 11:28:41;;;;;;;6.13;2.65;;;28.60;50.20;;;;;;4762718;30;20044;-77
2021/08/19 11:31:14;;;;;;;3.65;2.30;;;28.80;50.40;;;;;;4771904;30;20043;-77
2021/08/19 11:33:41;;;;;;;8.20;3.35;;;29.00;48.50;;;;;;4798736;30;20073;-78
2021/08/19 11:36:08;;;;;;;4.00;2.88;;;29.00;50.20;;;;;;4814093;29;20042;-77
2021/08/19 11:38:34;;;;;;;5.38;3.30;;;29.00;49.00;;;;;;4814339;29;20042;-77
2021/08/19 11:41:11;;;;;;;3.83;3.00;;;29.00;48.90;;;;;;4809664;29;20279;-77
2021/08/19 11:43:38;;;;;;;4.35;2.90;;;28.60;50.00;;;;;;4818349;29;20258;-78
2021/08/19 11:46:16;;;;;;;;;;;28.30;50.40;;;;;;4817442;29;20051;-78
2021/08/19 11:48:49;;;;;;;5.78;2.88;;;27.90;50.60;;;;;;4815832;29;19909;-78
2021/08/19 11:51:29;;;;;;;5.63;3.53;;;27.50;52.10;;;;;;4817160;29;20532;-78
2021/08/19 11:53:57;;;;;;;5.32;2.95;;;27.30;53.20;;;;;;4817125;29;20109;-78
2021/08/19 11:56:30;;;;;;;7.30;3.33;;;27.30;52.90;;;;;;4815016;29;20099;-77
2021/08/19 11:59:09;;;;;;;5.78;3.40;;;27.20;53.30;;;;;;4799241;29;20043;-78
2021/08/19 12:01:37;;;;;;;4.57;3.50;;;27.20;53.80;;;;;;4803753;29;20031;-78
2021/08/19 12:04:04;;;;;;;5.55;3.75;;;27.40;54.50;;;;;;4811600;29;20050;-78
2021/08/19 12:06:32;;;;;;;;;;;27.60;54.30;;;;;;4817339;29;20058;-77
2021/08/19 12:09:07;;;;;;;5.35;3.58;;;27.70;54.30;;;;;;4816679;29;19944;-78
2021/08/19 12:11:39;;;;;;;6.47;3.30;;;27.80;54.50;;;;;;4801890;29;20306;-78
2021/08/19 12:14:07;;;;;;;4.78;3.30;;;27.90;53.90;;;;;;4816473;29;20039;-78
2021/08/19 12:16:33;;;;;;;5.10;3.75;;;28.10;53.30;;;;;;4813388;29;20046;-77
2021/08/19 12:19:21;;;;;;;4.70;3.38;;;28.00;53.20;;;;;;4798118;30;20043;-78
2021/08/19 12:21:55;;;;;;;5.93;3.45;;;27.90;53.40;;;;;;4813479;29;20087;-77
2021/08/19 12:24:32;;;;;;;5.95;3.60;;;27.80;54.30;;;;;;4798761;29;20063;-77
2021/08/19 12:27:14;;;;;;;7.30;3.20;;;27.70;54.90;;;;;;4798728;29;20110;-77
2021/08/19 12:29:52;;;;;;;7.45;3.20;;;27.60;54.40;;;;;;4798393;29;20034;-78
2021/08/19 12:32:22;;;;;;;7.10;3.28;;;27.60;55.10;;;;;;4808433;29;20049;-78
2021/08/19 12:35:00;;;;;;;6.25;3.63;;;27.50;55.20;;;;;;4817443;29;20050;-77
2021/08/19 12:37:28;;;;;;;5.78;3.28;;;27.50;54.50;;;;;;4817443;29;20222;-78
2021/08/19 12:39:55;;;;;;;5.40;3.45;;;27.50;55.40;;;;;;4817377;29;20027;-77
2021/08/19 12:42:31;;;;;;;6.28;3.45;;;27.60;56.00;;;;;;4816340;29;20041;-78
2021/08/19 12:45:07;;;;;;;8.10;4.00;;;27.80;53.20;;;;;;4816368;29;20035;-78
2021/08/19 12:47:38;;;;;;;4.20;2.85;;;27.90;53.50;;;;;;4842666;29;20065;-77
2021/08/19 12:50:04;;;;;;;5.35;2.83;;;28.00;52.70;;;;;;4818533;29;20026;-78
2021/08/19 12:52:30;;;;;;;4.65;2.80;;;28.30;52.90;;;;;;4813190;29;20065;-78
2021/08/19 12:54:56;;;;;;;3.53;2.80;;;28.60;51.90;;;;;;4798073;30;20059;-77
2021/08/19 12:57:32;;;;;;;5.75;3.17;;;28.90;52.40;;;;;;4797460;30;20035;-77
2021/08/19 12:59:59;;;;;;;7.07;3.03;;;29.00;50.90;;;;;;4802173;29;20034;-77
2021/08/19 13:02:27;;;;;;;3.08;2.45;;;29.20;52.10;;;;;;4815083;29;20049;-77
2021/08/19 13:04:54;;;;;;;5.57;2.72;;;29.50;51.20;;;;;;4815676;29;20027;-77
2021/08/19 13:07:20;;;;;;;3.45;2.80;;;29.60;49.80;;;;;;4830346;29;20086;-77
2021/08/19 13:09:46;;;;;;;5.70;3.23;;;29.60;50.90;;;;;;4815765;29;20037;-78
2021/08/19 13:12:12;;;;;;;6.22;4.30;;;29.90;51.10;;;;;;4816248;29;20034;-77
2021/08/19 13:14:37;;;;;;;5.03;3.03;;;30.00;49.00;;;;;;4830667;29;20042;-77
2021/08/19 13:17:04;;;;;;;5.80;2.77;;;29.50;47.60;;;;;;4830810;29;20039;-77
2021/08/19 13:19:29;;;;;;;5.60;2.70;;;29.30;48.60;;;;;;4815250;29;20227;-77
2021/08/19 13:21:55;;;;;;;5.73;3.23;;;29.40;48.90;;;;;;4816287;29;20102;-77
2021/08/19 13:24:21;;;;;;;4.47;3.10;;;29.20;49.30;;;;;;4814690;29;20045;-77
2021/08/19 13:26:46;;;;;;;4.80;2.93;;;29.20;49.80;;;;;;4831046;29;20431;-77
2021/08/19 13:29:12;;;;;;;3.77;2.60;;;29.30;49.30;;;;;;4848552;29;20344;-77
2021/08/19 13:31:38;;;;;;;6.33;2.77;;;29.50;48.70;;;;;;4848535;29;20080;-77
2021/08/19 13:34:04;;;;;;;8.97;3.10;;;29.40;48.10;;;;;;4848351;29;20038;-77
2021/08/19 13:36:30;;;;;;;3.95;2.50;;;29.30;47.90;;;;;;4848349;29;20091;-78
2021/08/19 13:38:55;;;;;;;3.90;2.38;;;29.10;49.00;;;;;;4838460;29;20034;-78
2021/08/19 13:41:21;;;;;;;3.80;2.83;;;28.70;48.40;;;;;;4816434;29;20034;-77
2021/08/19 13:43:47;;;;;;;6.10;3.30;;;28.50;48.60;;;;;;4812410;29;20045;-78
2021/08/19 13:46:13;;;;;;;4.00;2.75;;;28.40;49.70;;;;;;4817473;29;20113;-77
2021/08/19 13:48:38;;;;;;;2.77;2.53;;;28.20;49.70;;;;;;4828584;29;20035;-77
2021/08/19 13:51:04;;;;;;;4.27;2.87;;;28.20;50.20;;;;;;4836641;29;20200;-77
2021/08/19 13:53:30;;;;;;;7.40;2.88;;;28.20;49.80;;;;;;4842454;29;20041;-77
2021/08/19 13:55:56;;;;;;;5.40;3.40;;;28.10;49.20;;;;;;4832906;29;20034;-77
2021/08/19 13:58:21;;;;;;;4.88;2.95;;;28.20;50.60;;;;;;4848134;29;20045;-77
2021/08/19 14:00:47;;;;;;;8.53;3.17;;;28.40;51.20;;;;;;4833136;29;20118;-77
2021/08/19 14:03:15;;;;;;;6.07;3.00;;;28.70;50.40;;;;;;4848238;29;20029;-77
2021/08/19 14:05:41;;;;;;;4.68;3.38;;;28.70;50.20;;;;;;4833899;29;20030;-77
2021/08/19 14:08:07;;;;;;;6.50;3.77;;;28.60;50.70;;;;;;4831391;29;20031;-77
2021/08/19 14:10:32;;;;;;;7.83;3.50;;;28.50;51.20;;;;;;4798306;29;20087;-77
2021/08/19 14:12:58;;;;;;;5.50;3.40;;;28.50;51.20;;;;;;4799889;30;20035;-77
2021/08/19 14:15:24;;;;;;;6.47;3.07;;;28.50;51.90;;;;;;4800154;30;20536;-77
2021/08/19 14:17:50;;;;;;;5.03;2.93;;;28.40;50.80;;;;;;4812976;29;20035;-77
2021/08/19 14:20:15;;;;;;;8.75;3.33;;;28.30;52.40;;;;;;4819607;29;20099;-78
2021/08/19 14:22:41;;;;;;;4.82;3.13;;;28.40;52.10;;;;;;4819529;29;20031;-78
2021/08/19 14:25:07;;;;;;;8.10;3.03;;;28.30;51.00;;;;;;4818614;29;20031;-78
2021/08/19 14:27:34;;;;;;;4.20;2.53;;;28.40;50.80;;;;;;4818721;29;20046;-78
2021/08/19 14:30:00;;;;;;;5.53;3.30;;;28.40;50.50;;;;;;4818304;29;20058;-78
2021/08/19 14:32:26;;;;;;;8.10;2.85;;;28.30;50.00;;;;;;4818436;29;20062;-78
2021/08/19 14:34:52;;;;;;;3.55;2.63;;;28.30;50.30;;;;;;4818763;29;20042;-78
2021/08/19 14:37:18;;;;;;;4.85;3.40;;;28.30;51.20;;;;;;4801025;29;20031;-77
2021/08/19 14:39:43;;;;;;;3.70;2.92;;;28.20;51.30;;;;;;4818621;29;20035;-78
2021/08/19 14:42:09;;;;;;;5.18;3.42;;;28.20;51.50;;;;;;4818697;29;20256;-78
2021/08/19 14:44:35;;;;;;;3.75;2.85;;;28.10;51.30;;;;;;4819745;29;20042;-78
2021/08/19 14:47:02;;;;;;;7.50;3.63;;;28.10;51.60;;;;;;4803312;29;20054;-78
2021/08/19 14:49:28;;;;;;;4.45;3.45;;;28.10;52.50;;;;;;4803302;29;20031;-78
2021/08/19 14:51:54;;;;;;;8.07;4.13;;;28.20;53.10;;;;;;4817970;29;20045;-78
2021/08/19 14:54:20;;;;;;;5.35;3.47;;;28.50;53.00;;;;;;4803678;29;20050;-78
2021/08/19 14:56:49;;;;;;;4.15;3.15;;;28.60;51.80;;;;;;4803545;29;20349;-78
2021/08/19 14:59:16;;;;;;;7.43;3.22;;;28.40;51.40;;;;;;4820615;29;20039;-78
2021/08/19 15:01:42;;;;;;;5.82;4.00;;;28.20;52.80;;;;;;4812406;29;20084;-78
2021/08/19 15:04:08;;;;;;;7.63;3.10;;;28.20;52.40;;;;;;4828597;29;20233;-77
2021/08/19 15:06:35;;;;;;;5.43;3.00;;;28.10;53.00;;;;;;4836783;29;20054;-78
2021/08/19 15:09:02;;;;;;;6.70;3.33;;;28.10;51.80;;;;;;4844646;29;20100;-77
2021/08/19 15:11:30;;;;;;;5.90;3.25;;;28.20;51.80;;;;;;4833891;29;20030;-77
2021/08/19 15:13:56;;;;;;;5.28;3.03;;;27.80;51.00;;;;;;4824684;29;20029;-77
2021/08/19 15:16:22;;;;;;;4.67;3.07;;;27.50;51.30;;;;;;4799943;29;20092;-77
2021/08/19 15:18:47;;;;;;;4.55;3.22;;;27.60;51.80;;;;;;4799400;30;20043;-77
2021/08/19 15:21:13;;;;;;;8.00;2.95;;;27.70;52.70;;;;;;4801216;29;20319;-77
2021/08/19 15:23:39;;;;;;;5.47;3.22;;;27.80;52.40;;;;;;4829355;29;20027;-77
2021/08/19 15:26:06;;;;;;;7.82;3.42;;;27.80;52.60;;;;;;4848570;29;20034;-77
2021/08/19 15:28:34;;;;;;;5.15;3.30;;;27.70;52.80;;;;;;4834135;29;20069;-77
2021/08/19 15:31:01;;;;;;;5.35;2.95;;;27.50;52.90;;;;;;4831427;29;20042;-77
2021/08/19 15:33:26;;;;;;;4.75;3.47;;;27.30;53.70;;;;;;4830593;29;20039;-77